createdAt,value
2023-01-24T06:04:24.444Z,1.31
2023-01-24T06:06:51.390Z,1.33
2023-01-24T06:09:18.495Z,1.33
2023-01-24T06:11:46.521Z,1.31
2023-01-24T06:14:18.097Z,1.32
2023-01-24T06:16:49.198Z,1.30
2023-01-24T06:19:16.908Z,1.26
2023-01-24T06:22:02.271Z,1.24
2023-01-24T06:24:30.503Z,1.21
2023-01-24T06:27:10.812Z,1.21
2023-01-24T06:29:37.851Z,1.20
2023-01-24T06:32:23.727Z,1.21
2023-01-24T06:35:11.393Z,1.19
2023-01-24T06:37:44.300Z,1.20
2023-01-24T06:40:13.359Z,1.20
2023-01-24T06:42:40.921Z,1.20
2023-01-24T06:45:08.555Z,1.20
2023-01-24T06:47:35.603Z,1.20
2023-01-24T06:50:02.391Z,1.22
2023-01-24T06:52:29.625Z,1.22
2023-01-24T06:54:56.262Z,1.25
2023-01-24T06:57:23.694Z,1.23
2023-01-24T06:59:50.244Z,1.25
2023-01-24T07:02:17.508Z,1.21
2023-01-24T07:04:44.213Z,1.21
2023-01-24T07:07:11.635Z,1.20
2023-01-24T07:09:38.200Z,1.20
2023-01-24T07:12:05.792Z,1.18
2023-01-24T07:14:32.368Z,1.18
2023-01-24T07:16:59.874Z,1.19
2023-01-24T07:19:26.705Z,1.20
2023-01-24T07:21:55.504Z,1.19
2023-01-24T07:24:25.426Z,1.19
2023-01-24T07:26:52.961Z,1.23
2023-01-24T07:29:20.088Z,1.21
2023-01-24T07:31:49.647Z,1.18
2023-01-24T07:34:18.407Z,1.16
2023-01-24T07:36:46.797Z,1.13
2023-01-24T07:39:13.860Z,1.07
2023-01-24T07:41:43.714Z,1.05
2023-01-24T07:44:12.603Z,1.07
2023-01-24T07:46:39.867Z,1.07
2023-01-24T07:49:06.465Z,1.06
2023-01-24T07:51:33.724Z,1.07
2023-01-24T07:54:00.350Z,1.03
2023-01-24T07:56:27.447Z,1.05
2023-01-24T07:58:54.678Z,1.06
2023-01-24T08:01:23.939Z,1.06
2023-01-24T08:03:50.881Z,1.07
2023-01-24T08:06:18.873Z,1.07
2023-01-24T08:08:45.487Z,1.11
2023-01-24T08:11:14.957Z,1.11
2023-01-24T08:13:41.527Z,1.06
2023-01-24T08:16:09.286Z,1.06
2023-01-24T08:18:38.184Z,1.11
2023-01-24T08:21:05.519Z,1.12
2023-01-24T08:23:32.209Z,1.11
2023-01-24T08:26:00.526Z,1.09
2023-01-24T08:28:28.041Z,1.06
2023-01-24T08:30:57.982Z,1.07
2023-01-24T08:33:24.468Z,1.06
2023-01-24T08:35:52.042Z,1.13
2023-01-24T08:38:18.687Z,1.12
2023-01-24T08:40:50.005Z,1.14
2023-01-24T08:43:18.538Z,1.11
2023-01-24T08:45:46.040Z,1.07
2023-01-24T08:48:12.858Z,1.08
2023-01-24T08:50:40.112Z,1.06
2023-01-24T08:53:06.748Z,1.06
2023-01-24T08:55:34.045Z,1.06
2023-01-24T08:58:02.339Z,1.09
2023-01-24T09:00:29.646Z,1.11
2023-01-24T09:02:59.467Z,1.13
2023-01-24T09:05:26.897Z,1.15
2023-01-24T09:07:54.009Z,1.13
2023-01-24T09:10:20.623Z,1.12
2023-01-24T09:12:47.888Z,1.16
2023-01-24T09:15:14.473Z,1.13
2023-01-24T09:17:41.697Z,1.15
2023-01-24T09:20:09.098Z,1.18
2023-01-24T09:22:36.306Z,1.21
2023-01-24T09:25:04.678Z,1.25
2023-01-24T09:27:31.909Z,1.30
2023-01-24T09:29:58.648Z,1.36
2023-01-24T09:32:25.212Z,1.38
2023-01-24T09:34:52.315Z,1.36
2023-01-24T09:37:20.269Z,1.33
2023-01-24T09:39:47.615Z,1.30
2023-01-24T09:42:32.429Z,1.35
2023-01-24T09:45:07.963Z,1.31
2023-01-24T09:47:44.604Z,1.29
2023-01-24T09:50:18.330Z,1.37
2023-01-24T09:52:48.336Z,1.40
2023-01-24T09:55:25.290Z,1.43
2023-01-24T09:58:07.251Z,1.47
2023-01-24T10:00:39.806Z,1.43
2023-01-24T10:03:20.710Z,1.44
2023-01-24T10:05:51.747Z,1.49
2023-01-24T10:08:21.554Z,1.52
2023-01-24T10:10:57.877Z,1.57
2023-01-24T10:13:43.128Z,1.56
2023-01-24T10:16:22.323Z,1.57
2023-01-24T10:19:11.926Z,1.64
2023-01-24T10:21:48.789Z,1.63
2023-01-24T10:24:38.377Z,1.65
2023-01-24T10:27:28.793Z,1.65
2023-01-24T10:30:00.989Z,1.63
2023-01-24T10:32:34.005Z,1.61
2023-01-24T10:35:13.706Z,1.58
2023-01-24T10:37:44.881Z,1.61
2023-01-24T10:40:16.487Z,1.65
2023-01-24T10:42:44.148Z,1.66
2023-01-24T10:45:31.748Z,1.64
2023-01-24T10:48:06.008Z,1.65
2023-01-24T10:50:43.389Z,1.65
2023-01-24T10:53:30.708Z,1.68
2023-01-24T10:56:05.973Z,1.70
2023-01-24T10:58:55.481Z,1.72
2023-01-24T11:01:25.347Z,1.68
2023-01-24T11:03:53.325Z,1.70
2023-01-24T11:06:37.777Z,1.70
2023-01-24T11:09:13.784Z,1.67
2023-01-24T11:11:51.259Z,1.64
2023-01-24T11:14:21.898Z,1.62
2023-01-24T11:16:52.287Z,1.65
2023-01-24T11:19:35.610Z,1.66
2023-01-24T11:22:27.597Z,1.69
2023-01-24T11:25:00.375Z,1.73
2023-01-24T11:27:28.001Z,1.75
2023-01-24T11:30:14.747Z,1.82
2023-01-24T11:33:06.683Z,1.91
2023-01-24T11:35:37.231Z,1.90
2023-01-24T11:38:22.761Z,1.90
2023-01-24T11:40:55.293Z,1.96
2023-01-24T11:43:37.339Z,2.00
2023-01-24T11:46:13.187Z,2.05
2023-01-24T11:49:17.687Z,2.02
2023-01-24T11:52:22.028Z,2.09
2023-01-24T11:54:57.546Z,2.11
2023-01-24T11:57:29.045Z,2.14
2023-01-24T12:00:13.685Z,2.19
2023-01-24T12:03:14.674Z,2.19
2023-01-24T12:05:47.259Z,2.21
2023-01-24T12:08:31.338Z,2.22
2023-01-24T12:11:34.686Z,2.22
2023-01-24T12:14:16.277Z,2.28
2023-01-24T12:16:48.117Z,2.28
2023-01-24T12:19:24.382Z,2.30
2023-01-24T12:22:25.651Z,2.23
2023-01-24T12:24:59.334Z,2.26
2023-01-24T12:27:27.731Z,2.26
2023-01-24T12:30:19.085Z,2.29
2023-01-24T12:32:50.818Z,2.29
2023-01-24T12:35:36.453Z,2.27
2023-01-24T12:38:12.868Z,2.25
2023-01-24T12:40:51.429Z,2.18
2023-01-24T12:43:25.526Z,2.22
2023-01-24T12:46:17.566Z,2.13
2023-01-24T12:48:47.026Z,2.13
2023-01-24T12:51:31.263Z,2.10
2023-01-24T12:54:19.188Z,2.10
2023-01-24T12:57:02.294Z,2.06
2023-01-24T12:59:33.596Z,2.02
2023-01-24T13:02:28.137Z,1.97
2023-01-24T13:05:23.911Z,2.02
2023-01-24T13:08:05.513Z,2.05
2023-01-24T13:10:35.393Z,2.04
2023-01-24T13:13:03.303Z,2.08
2023-01-24T13:15:54.683Z,2.07
2023-01-24T13:19:12.918Z,2.07
2023-01-24T13:21:53.354Z,2.09
2023-01-24T13:24:58.959Z,2.05
2023-01-24T13:27:40.779Z,2.05
2023-01-24T13:30:25.365Z,2.14
2023-01-24T13:32:54.696Z,2.18
2023-01-24T13:35:23.982Z,2.22
2023-01-24T13:38:04.166Z,2.23
2023-01-24T13:40:36.321Z,2.23
2023-01-24T13:43:04.787Z,2.25
2023-01-24T13:45:47.153Z,2.24
2023-01-24T13:48:41.575Z,2.21
2023-01-24T13:51:18.077Z,2.14
2023-01-24T13:54:04.728Z,2.18
2023-01-24T13:56:32.435Z,2.12
2023-01-24T13:59:00.276Z,2.09
2023-01-24T14:01:28.260Z,2.04
2023-01-24T14:04:01.123Z,2.04
2023-01-24T14:06:41.154Z,2.02
2023-01-24T14:09:35.087Z,1.98
2023-01-24T14:12:05.932Z,2.01
2023-01-24T14:14:37.725Z,2.00
2023-01-24T14:17:26.321Z,2.02
2023-01-24T14:19:55.687Z,1.99
2023-01-24T14:22:31.879Z,1.96
2023-01-24T14:25:06.123Z,1.96
2023-01-24T14:27:36.317Z,1.91
2023-01-24T14:30:18.745Z,1.85
2023-01-24T14:32:49.324Z,1.78
2023-01-24T14:35:22.805Z,1.78
2023-01-24T14:37:51.980Z,1.79
2023-01-24T14:40:21.099Z,1.77
2023-01-24T14:42:50.595Z,1.77
2023-01-24T14:45:19.046Z,1.79
2023-01-24T14:47:51.472Z,1.83
2023-01-24T14:50:39.958Z,1.86
2023-01-24T14:53:30.231Z,1.92
2023-01-24T14:56:03.457Z,1.91
2023-01-24T14:58:31.088Z,1.88
2023-01-24T15:01:01.622Z,1.82
2023-01-24T15:03:31.586Z,1.79
2023-01-24T15:06:00.715Z,1.67
2023-01-24T15:08:27.682Z,1.61
2023-01-24T15:11:19.620Z,1.52
2023-01-24T15:13:55.876Z,1.54
2023-01-24T15:16:28.628Z,1.53
2023-01-24T15:19:02.606Z,1.56
2023-01-24T15:21:38.574Z,1.55
2023-01-24T15:24:16.847Z,1.55
2023-01-24T15:26:44.997Z,1.52
2023-01-24T15:29:33.671Z,1.49
2023-01-24T15:32:01.091Z,1.49
2023-01-24T15:34:30.949Z,1.49
2023-01-24T15:37:01.513Z,1.48
2023-01-24T15:39:28.360Z,1.48
2023-01-24T15:42:14.026Z,1.49
2023-01-24T15:44:47.458Z,1.48
2023-01-24T15:47:39.951Z,1.48
2023-01-24T15:50:40.491Z,1.48
2023-01-24T15:53:13.875Z,1.45
2023-01-24T15:55:41.197Z,1.44
2023-01-24T15:58:09.947Z,1.36
2023-01-24T16:00:37.864Z,1.34
2023-01-24T16:03:04.497Z,1.32
2023-01-24T16:05:31.794Z,1.29
2023-01-24T16:07:58.405Z,1.30
2023-01-24T16:10:25.314Z,1.28
2023-01-24T16:12:53.271Z,1.31
2023-01-24T16:15:21.582Z,1.29
2023-01-24T16:17:48.978Z,1.33
2023-01-24T16:20:24.495Z,1.30
2023-01-24T16:22:51.736Z,1.35
2023-01-24T16:25:20.231Z,1.37
2023-01-24T16:27:48.634Z,1.39
2023-01-24T16:30:26.458Z,1.36
2023-01-24T16:32:54.278Z,1.35
2023-01-24T16:35:21.391Z,1.37
2023-01-24T16:37:49.006Z,1.34
2023-01-24T16:40:18.228Z,1.26
2023-01-24T16:42:48.011Z,1.22
2023-01-24T16:45:18.535Z,1.21
2023-01-24T16:47:46.472Z,1.21
2023-01-24T16:50:14.135Z,1.16
2023-01-24T16:52:41.469Z,1.12
2023-01-24T16:55:09.038Z,1.09
2023-01-24T16:57:35.995Z,1.05
2023-01-24T17:00:05.412Z,1.07
2023-01-24T17:02:32.379Z,1.08
2023-01-24T17:04:58.933Z,1.06
2023-01-24T17:07:26.132Z,1.07
2023-01-24T17:09:52.662Z,1.08
2023-01-24T17:12:19.931Z,1.05
2023-01-24T17:14:46.994Z,1.03
2023-01-24T17:17:14.260Z,1.01
2023-01-24T17:19:40.855Z,0.96
2023-01-24T17:22:08.065Z,0.97
2023-01-24T17:24:34.716Z,0.99
2023-01-24T17:27:02.083Z,1.00
2023-01-24T17:29:29.143Z,1.00
2023-01-24T17:31:57.442Z,0.98
2023-01-24T17:34:24.948Z,0.98
2023-01-24T17:36:53.265Z,0.97
2023-01-24T17:39:20.548Z,0.98
2023-01-24T17:41:47.995Z,0.96
2023-01-24T17:44:17.208Z,0.92
2023-01-24T17:46:44.920Z,0.94
2023-01-24T17:49:11.651Z,0.87
2023-01-24T17:51:39.190Z,0.84
2023-01-24T17:54:06.668Z,0.79
2023-01-24T17:56:33.548Z,0.75
2023-01-24T17:59:00.595Z,0.76
2023-01-24T18:01:27.811Z,0.78
2023-01-24T18:03:55.048Z,0.74
2023-01-24T18:06:22.721Z,0.72
2023-01-24T18:08:49.368Z,0.73
2023-01-24T18:11:18.860Z,0.73
2023-01-24T18:13:45.557Z,0.72
2023-01-24T18:16:15.855Z,0.73
2023-01-24T18:18:42.821Z,0.73
2023-01-24T18:21:11.713Z,0.72
2023-01-24T18:23:39.006Z,0.69
2023-01-24T18:26:07.029Z,0.65
2023-01-24T18:28:34.885Z,0.65
2023-01-24T18:31:07.111Z,0.64
2023-01-24T18:33:35.250Z,0.65
2023-01-24T18:36:07.621Z,0.69
2023-01-24T18:38:35.148Z,0.71
2023-01-24T18:41:02.010Z,0.70
2023-01-24T18:43:28.605Z,0.70
2023-01-24T18:45:55.446Z,0.68
2023-01-24T18:48:22.524Z,0.67
2023-01-24T18:50:49.079Z,0.67
2023-01-24T18:53:15.819Z,0.63
2023-01-24T18:55:42.364Z,0.65
2023-01-24T18:58:09.065Z,0.62
2023-01-24T19:00:35.979Z,0.57
2023-01-24T19:03:02.898Z,0.53
2023-01-24T19:05:29.471Z,0.50
2023-01-24T19:07:56.264Z,0.53
2023-01-24T19:10:22.864Z,0.51
2023-01-24T19:12:49.468Z,0.44
2023-01-24T19:15:19.386Z,0.43
2023-01-24T19:17:50.449Z,0.52
2023-01-24T19:20:18.336Z,0.48
2023-01-24T19:22:45.476Z,0.47
2023-01-24T19:25:14.892Z,0.57
2023-01-24T19:27:42.084Z,0.54
2023-01-24T19:30:09.278Z,0.53
2023-01-24T19:32:39.332Z,0.50
2023-01-24T19:35:06.581Z,0.46
2023-01-24T19:37:34.124Z,0.46
2023-01-24T19:40:00.679Z,0.36
2023-01-24T19:42:27.919Z,0.39
2023-01-24T19:44:54.560Z,0.40
2023-01-24T19:47:22.382Z,0.41
2023-01-24T19:49:48.949Z,0.44
2023-01-24T19:52:16.256Z,0.43
2023-01-24T19:54:43.302Z,0.44
2023-01-24T19:57:10.960Z,0.40
2023-01-24T19:59:38.189Z,0.40
2023-01-24T20:02:06.206Z,0.44
2023-01-24T20:04:41.103Z,0.47
2023-01-24T20:07:17.946Z,0.53
2023-01-24T20:09:44.540Z,0.55
2023-01-24T20:12:11.901Z,0.59
2023-01-24T20:14:38.454Z,0.59
2023-01-24T20:17:05.774Z,0.61
2023-01-24T20:19:33.579Z,0.59
2023-01-24T20:22:01.040Z,0.58
2023-01-24T20:24:28.814Z,0.51
2023-01-24T20:26:56.618Z,0.50
2023-01-24T20:29:23.713Z,0.52
2023-01-24T20:31:51.121Z,0.51
2023-01-24T20:34:18.678Z,0.43
2023-01-24T20:36:49.695Z,0.48
2023-01-24T20:39:16.670Z,0.51
2023-01-24T20:41:45.318Z,0.50
2023-01-24T20:44:25.697Z,0.52
2023-01-24T20:46:53.780Z,0.55
2023-01-24T20:49:20.460Z,0.54
2023-01-24T20:51:47.804Z,0.53
2023-01-24T20:54:14.664Z,0.49
2023-01-24T20:56:41.912Z,0.52
2023-01-24T20:59:09.506Z,0.53
2023-01-24T21:01:36.943Z,0.52
2023-01-24T21:04:06.856Z,0.49
2023-01-24T21:06:37.004Z,0.42
2023-01-24T21:09:04.969Z,0.45
2023-01-24T21:11:33.567Z,0.44
2023-01-24T21:14:02.528Z,0.37
2023-01-24T21:16:32.597Z,0.40
2023-01-24T21:19:01.338Z,0.44
2023-01-24T21:21:35.321Z,0.49
2023-01-24T21:24:14.969Z,0.49
2023-01-24T21:26:47.558Z,0.47
2023-01-24T21:29:14.715Z,0.46
2023-01-24T21:31:43.289Z,0.41
2023-01-24T21:34:22.623Z,0.37
2023-01-24T21:37:01.485Z,0.35
2023-01-24T21:39:28.566Z,0.31
2023-01-24T21:42:01.379Z,0.27
2023-01-24T21:44:38.801Z,0.32
2023-01-24T21:47:10.306Z,0.34
2023-01-24T21:49:38.149Z,0.37
2023-01-24T21:52:05.382Z,0.34
2023-01-24T21:54:36.022Z,0.36
2023-01-24T21:57:32.062Z,0.39
2023-01-24T22:00:03.084Z,0.39
2023-01-24T22:02:42.426Z,0.42
2023-01-24T22:05:10.653Z,0.34
2023-01-24T22:07:37.933Z,0.32
2023-01-24T22:10:08.331Z,0.32
2023-01-24T22:12:38.093Z,0.41
2023-01-24T22:15:08.253Z,0.44
2023-01-24T22:17:39.502Z,0.40
2023-01-24T22:20:07.589Z,0.40
2023-01-24T22:22:43.616Z,0.47
2023-01-24T22:25:41.877Z,0.36
2023-01-24T22:28:18.663Z,0.37
2023-01-24T22:30:47.276Z,0.35
2023-01-24T22:33:14.373Z,0.46
2023-01-24T22:35:43.314Z,0.47
2023-01-24T22:38:10.232Z,0.43
2023-01-24T22:40:37.831Z,0.44
2023-01-24T22:43:04.867Z,0.43
2023-01-24T22:45:32.465Z,0.42
2023-01-24T22:47:59.472Z,0.40
2023-01-24T22:50:27.012Z,0.44
2023-01-24T22:52:54.115Z,0.39
2023-01-24T22:55:21.541Z,0.43
2023-01-24T22:57:49.172Z,0.48
2023-01-24T23:00:18.023Z,0.50
2023-01-24T23:02:45.355Z,0.47
2023-01-24T23:05:12.749Z,0.48
2023-01-24T23:07:43.445Z,0.47
2023-01-24T23:10:11.105Z,0.46
2023-01-24T23:12:56.588Z,0.45
2023-01-24T23:15:42.677Z,0.46
2023-01-24T23:18:15.408Z,0.44
2023-01-24T23:21:01.460Z,0.35
2023-01-24T23:23:28.321Z,0.29
2023-01-24T23:25:55.798Z,0.25
2023-01-24T23:28:22.566Z,0.28
2023-01-24T23:31:09.514Z,0.34
2023-01-24T23:33:41.917Z,0.31
2023-01-24T23:36:12.280Z,0.34
2023-01-24T23:38:39.209Z,0.42
2023-01-24T23:41:08.863Z,0.37
2023-01-24T23:43:35.968Z,0.36
2023-01-24T23:46:03.647Z,0.39
2023-01-24T23:48:30.766Z,0.37
2023-01-24T23:50:59.905Z,0.38
2023-01-24T23:53:28.606Z,0.39
2023-01-24T23:55:56.743Z,0.37
2023-01-24T23:58:23.911Z,0.44
